Reese Station, Ohio
Current Conditions -  °F | °C
As of 12:15 PM on Friday 28 Nov 2014 (Local Time) from KLCK Reporting Station
Overcast Overcast  
Wind Chill: 23°   Ceiling: 9000
Heat Index: 29°   Visibility: 10mi
Dew Point: 16°   Wind: 6mph
Humidity: 58%   Direction: 200°SSW
Pressure: 30.33"   Gusts: 9mph
Location:  39.8938°N, 82.9624°W
Report Text: KLCK 281715Z AUTO 20005G08KT 10SM SCT030 OVC090 M02/M09 A3033 RMK AO2 T10161088
Loading
Personal Weather Stations






























Interactive Weather Map New forecast layout! Learn more

10-Day Weather Forecast

Advertisements
Track Severe Weather on mobile